Terminal Aerodrome Forecast
Issued by NWS

Home | Current Version | Previous Version | Text Only | Print | Product List | Glossary On
Versions: 1 2 3 4 5 6 7 8 9 10 11 12 13 14 15 16 17 18 19 20
000
FTUS43 KMQT 201100
TAFSAW
TAF
KSAW 201133Z 2012/2112 33008KT P6SM OVC010
     FM201800 36013KT P6SM -SHRA OVC015
     FM210100 01012G20KT P6SM -SHRA OVC006
     FM210500 01010KT P6SM OVC010
      AMD LTD TO CLD VIS AND WIND 2102/2110=

USA.gov is the U.S. government's official web portal to all federal, state and local government web resources and services.